Time;durP1;ratioP1;P1;durP2;ratioP2;P2;SDS_P1;SDS_P2;PMS_P1;PMS_P2;Temp;Humidity;BMP_temperature;BMP_pressure;BME280_temperature;BME280_humidity;BME280_pressure;Samples;Min_cycle;Max_cycle;Signal;HPM_P1;HPM_P2
2023/10/15 00:01:50;;;;;;;4.03;1.90;;;;;;;6.87;100.00;99085.88;5004692;28;19972;-75
2023/10/15 00:04:15;;;;;;;5.20;2.17;;;;;;;6.83;100.00;99095.28;5003531;23;20034;-75
2023/10/15 00:06:40;;;;;;;5.97;2.38;;;;;;;6.81;100.00;99106.22;5000881;28;20345;-74
2023/10/15 00:09:06;;;;;;;11.18;2.83;;;;;;;6.77;100.00;99105.72;4996391;28;20026;-75
2023/10/15 00:11:32;;;;;;;7.43;2.97;;;;;;;6.64;100.00;99081.22;4995299;28;20370;-75
2023/10/15 00:13:57;;;;;;;5.07;2.40;;;;;;;6.67;100.00;99107.75;4996326;28;20030;-74
2023/10/15 00:16:24;;;;;;;11.02;2.95;;;;;;;6.62;100.00;99107.44;4986211;28;20030;-75
2023/10/15 00:18:49;;;;;;;13.65;3.17;;;;;;;6.51;100.00;99091.66;5003840;28;20034;-75
2023/10/15 00:21:15;;;;;;;18.75;3.72;;;;;;;6.46;100.00;99094.84;5003246;28;20026;-74
2023/10/15 00:23:46;;;;;;;10.27;3.00;;;;;;;6.44;100.00;99106.78;4991840;28;20017;-75
2023/10/15 00:26:12;;;;;;;8.70;2.55;;;;;;;6.33;100.00;99106.13;5002590;28;20089;-75
2023/10/15 00:28:38;;;;;;;9.93;2.70;;;;;;;6.29;100.00;99109.34;4999169;28;20227;-75
2023/10/15 00:31:13;;;;;;;5.00;2.50;;;;;;;6.18;100.00;99094.34;4986042;28;20294;-75
2023/10/15 00:33:42;;;;;;;5.18;2.20;;;;;;;6.22;100.00;99111.00;5006047;28;20027;-75
2023/10/15 00:36:09;;;;;;;6.00;2.60;;;;;;;6.11;100.00;99098.75;4997865;28;20038;-74
2023/10/15 00:38:36;;;;;;;15.05;2.63;;;;;;;5.97;100.00;99104.75;4991421;28;20034;-75
2023/10/15 00:41:07;;;;;;;5.30;2.75;;;;;;;5.84;100.00;99100.72;5008052;28;20100;-75
2023/10/15 00:43:34;;;;;;;8.38;2.42;;;;;;;5.86;100.00;99105.91;5013637;28;20023;-75
2023/10/15 00:46:01;;;;;;;8.02;2.50;;;;;;;5.74;100.00;99094.66;5014215;28;20034;-74
2023/10/15 00:48:36;;;;;;;6.68;2.47;;;;;;;5.80;100.00;99101.19;5009094;28;20080;-75
2023/10/15 00:51:11;;;;;;;5.75;2.40;;;;;;;5.79;100.00;99102.19;4989404;28;20042;-75
2023/10/15 00:53:47;;;;;;;11.23;2.83;;;;;;;5.77;100.00;99093.47;4987209;28;20022;-75
2023/10/15 00:56:13;;;;;;;13.60;2.90;;;;;;;5.80;100.00;99085.09;5006757;28;20207;-74
2023/10/15 00:58:53;;;;;;;15.65;3.17;;;;;;;5.82;100.00;99083.91;5000729;28;20226;-75
2023/10/15 01:01:26;;;;;;;10.57;2.90;;;;;;;5.97;100.00;99080.59;4991159;28;20033;-75
2023/10/15 01:03:57;;;;;;;8.65;2.50;;;;;;;5.96;100.00;99081.63;5008615;28;20014;-75
2023/10/15 01:06:29;;;;;;;8.50;2.55;;;;;;;6.05;100.00;99084.16;4988868;28;20318;-75
2023/10/15 01:08:59;;;;;;;5.15;2.22;;;;;;;6.07;100.00;99078.59;4998769;28;20064;-75
2023/10/15 01:11:28;;;;;;;7.57;2.40;;;;;;;6.09;100.00;99080.09;4989155;28;20214;-74
2023/10/15 01:13:54;;;;;;;7.15;2.33;;;;;;;6.09;100.00;99092.69;5004896;28;20213;-75
2023/10/15 01:16:19;;;;;;;5.57;2.20;;;;;;;6.12;100.00;99093.19;5004346;28;20406;-75
2023/10/15 01:19:15;;;;;;;5.30;1.75;;;;;;;6.12;100.00;99092.34;5013211;28;20030;-75
2023/10/15 01:22:18;;;;;;;5.55;2.30;;;;;;;6.15;100.00;99089.31;4983499;28;20200;-74
2023/10/15 01:24:36;;;;;;;4.75;2.20;;;;;;;6.20;100.00;99083.47;5000090;28;20026;-75
2023/10/15 01:27:09;;;;;;;4.47;2.13;;;;;;;6.27;100.00;99089.84;4983221;28;20110;-75
2023/10/15 01:29:35;;;;;;;5.72;2.47;;;;;;;6.27;100.00;99079.09;4984161;28;20022;-75
2023/10/15 01:32:03;;;;;;;7.72;2.42;;;;;;;6.31;100.00;99081.28;4995669;28;20032;-75
2023/10/15 01:34:37;;;;;;;4.13;2.00;;;;;;;6.30;100.00;99076.06;5005435;28;20078;-75
2023/10/15 01:37:15;;;;;;;7.47;2.10;;;;;;;6.34;100.00;99069.31;4988598;28;20037;-75
2023/10/15 01:39:45;;;;;;;9.40;2.15;;;;;;;6.37;100.00;99074.38;5003473;28;20022;-75
2023/10/15 01:42:31;;;;;;;8.60;2.03;;;;;;;6.34;100.00;99064.81;4983269;28;20066;-75
2023/10/15 01:50:24;;;;;;;4.18;1.70;;;;;;;6.51;100.00;99071.00;5006721;28;20026;-75
2023/10/15 01:52:54;;;;;;;3.55;1.63;;;;;;;6.50;100.00;99079.25;5004416;28;20026;-75
2023/10/15 01:55:19;;;;;;;7.68;2.45;;;;;;;6.53;100.00;99081.59;4993327;28;20287;-75
2023/10/15 01:57:46;;;;;;;5.20;1.70;;;;;;;6.63;100.00;99084.06;5005398;28;20026;-75
2023/10/15 02:00:33;;;;;;;5.05;2.20;;;;;;;6.67;100.00;99080.88;5003513;28;20378;-75
2023/10/15 02:02:58;;;;;;;4.22;2.00;;;;;;;6.74;100.00;99081.88;5015102;28;20016;-74
2023/10/15 02:05:40;;;;;;;6.40;2.28;;;;;;;6.72;100.00;99073.13;5016743;28;20014;-75
2023/10/15 02:08:12;;;;;;;6.80;2.10;;;;;;;6.92;100.00;99072.75;5022308;28;20025;-74
2023/10/15 02:10:39;;;;;;;3.58;1.92;;;;;;;6.85;100.00;99072.59;4998072;28;20023;-74
2023/10/15 02:13:08;;;;;;;4.40;2.30;;;;;;;6.84;100.00;99075.44;4999779;28;20174;-75
2023/10/15 02:15:38;;;;;;;8.73;2.20;;;;;;;6.77;100.00;99057.31;5016150;28;20086;-75
2023/10/15 02:18:05;;;;;;;5.35;1.60;;;;;;;6.84;100.00;99072.75;5016734;28;20023;-74
2023/10/15 02:20:44;;;;;;;6.22;1.88;;;;;;;6.84;100.00;99067.38;5015584;28;20033;-75
2023/10/15 02:23:18;;;;;;;6.72;1.90;;;;;;;6.92;100.00;99073.59;4990655;28;20041;-75
2023/10/15 02:25:48;;;;;;;5.72;1.65;;;;;;;6.86;100.00;99062.66;5021919;28;20022;-75
2023/10/15 02:28:17;;;;;;;5.45;2.28;;;;;;;6.91;100.00;99065.69;5016750;28;20032;-74
2023/10/15 02:30:46;;;;;;;3.75;1.20;;;;;;;6.91;100.00;99071.91;5007208;28;20057;-75
2023/10/15 02:33:16;;;;;;;4.70;1.60;;;;;;;6.89;100.00;99062.31;5009372;28;20091;-75
2023/10/15 02:35:42;;;;;;;6.82;1.42;;;;;;;6.78;100.00;99053.63;4996691;28;20026;-75
2023/10/15 02:38:10;;;;;;;7.93;1.92;;;;;;;6.74;100.00;99059.53;4991923;28;20022;-75
2023/10/15 02:40:38;;;;;;;3.65;1.42;;;;;;;6.75;100.00;99067.41;5012905;28;20014;-75
2023/10/15 02:43:06;;;;;;;6.00;1.85;;;;;;;6.65;100.00;99050.63;4994674;28;20040;-75
2023/10/15 02:45:35;;;;;;;5.38;1.92;;;;;;;6.61;100.00;99049.31;5004135;28;20096;-75
2023/10/15 02:48:10;;;;;;;4.70;1.80;;;;;;;6.65;100.00;99058.69;4999154;28;20235;-75
2023/10/15 02:50:36;;;;;;;8.98;2.22;;;;;;;6.64;100.00;99054.34;5011347;28;20030;-75
2023/10/15 02:53:05;;;;;;;6.00;1.50;;;;;;;6.56;100.00;99048.97;4989329;28;20029;-76
2023/10/15 02:55:35;;;;;;;6.15;1.58;;;;;;;6.61;100.00;99053.84;5013583;28;20026;-74
2023/10/15 02:58:02;;;;;;;3.63;1.08;;;;;;;6.72;100.00;99056.16;4997576;28;20049;-75
2023/10/15 03:00:33;;;;;;;2.55;1.45;;;;;;;6.61;100.00;99053.84;4983674;28;20092;-76
2023/10/15 03:03:07;;;;;;;4.30;1.30;;;;;;;6.53;100.00;99042.09;5020329;28;20061;-75
2023/10/15 03:05:38;;;;;;;6.20;1.92;;;;;;;6.65;100.00;99056.00;5001446;28;20022;-75
2023/10/15 03:08:04;;;;;;;3.97;1.48;;;;;;;6.60;100.00;99055.69;4990902;28;20108;-75
2023/10/15 03:10:44;;;;;;;8.70;1.30;;;;;;;6.72;100.00;99065.06;5003720;28;20076;-75
2023/10/15 03:13:14;;;;;;;5.53;1.67;;;;;;;6.84;100.00;99062.88;5000384;28;20097;-75
2023/10/15 03:15:46;;;;;;;4.35;1.50;;;;;;;6.83;100.00;99063.03;5011272;28;20056;-75
2023/10/15 03:18:14;;;;;;;7.88;1.58;;;;;;;6.82;100.00;99061.38;4984439;28;20058;-75
2023/10/15 03:20:49;;;;;;;5.15;1.20;;;;;;;6.96;100.00;99069.53;5006680;28;20100;-75
2023/10/15 03:23:17;;;;;;;6.78;1.73;;;;;;;6.96;100.00;99061.47;5022681;28;20026;-75
2023/10/15 03:25:42;;;;;;;5.60;1.50;;;;;;;6.98;100.00;99059.44;5017863;28;20037;-75
2023/10/15 03:28:11;;;;;;;3.90;1.30;;;;;;;6.97;100.00;99056.94;5004206;28;20097;-75
2023/10/15 03:30:44;;;;;;;4.57;1.70;;;;;;;7.05;100.00;99061.41;5010143;28;20045;-75
2023/10/15 03:33:11;;;;;;;3.40;1.15;;;;;;;7.09;100.00;99052.84;4984470;28;20054;-75
2023/10/15 03:35:45;;;;;;;2.78;1.30;;;;;;;7.20;100.00;99052.47;4986845;28;20026;-75
2023/10/15 03:38:14;;;;;;;4.40;1.17;;;;;;;7.26;100.00;99061.69;4989724;28;20169;-74
2023/10/15 03:40:50;;;;;;;1.80;0.95;;;;;;;7.40;100.00;99057.41;4988903;28;20022;-75
2023/10/15 03:43:15;;;;;;;4.25;1.33;;;;;;;7.30;100.00;99054.09;4991413;28;20319;-75
2023/10/15 03:45:50;;;;;;;6.72;1.52;;;;;;;7.23;100.00;99057.50;4995114;28;20085;-75
2023/10/15 03:48:21;;;;;;;5.40;1.33;;;;;;;7.15;100.00;99065.59;4989836;28;20022;-75
2023/10/15 03:50:59;;;;;;;5.18;1.98;;;;;;;7.18;100.00;99056.34;5003973;28;20026;-75
2023/10/15 03:53:29;;;;;;;3.30;1.20;;;;;;;7.30;100.00;99064.84;4988189;28;20030;-76
2023/10/15 03:55:58;;;;;;;5.90;1.50;;;;;;;7.33;100.00;99064.50;5006623;28;20030;-75
2023/10/15 03:58:24;;;;;;;8.02;1.60;;;;;;;7.28;100.00;99056.94;5007414;28;20038;-75
2023/10/15 04:01:01;;;;;;;4.30;2.00;;;;;;;7.22;100.00;99063.03;5002621;28;20029;-75
2023/10/15 04:03:28;;;;;;;4.22;1.50;;;;;;;7.18;100.00;99067.09;5011403;28;20403;-75
2023/10/15 04:06:05;;;;;;;5.22;2.30;;;;;;;7.12;100.00;99062.41;5000753;28;20090;-75
2023/10/15 04:08:31;;;;;;;3.70;1.77;;;;;;;7.06;100.00;99068.50;5000936;28;20034;-75
2023/10/15 04:10:57;;;;;;;5.00;1.50;;;;;;;7.08;100.00;99061.94;5002135;28;20205;-75
2023/10/15 04:13:22;;;;;;;8.02;1.60;;;;;;;7.09;100.00;99058.22;5005324;28;20191;-76
2023/10/15 04:15:49;;;;;;;5.40;1.75;;;;;;;7.15;100.00;99060.22;5006267;28;20034;-75
2023/10/15 04:18:14;;;;;;;9.90;2.28;;;;;;;7.29;100.00;99057.81;5014714;28;20033;-75
2023/10/15 04:20:42;;;;;;;6.82;1.85;;;;;;;7.40;100.00;99066.31;5005656;28;20307;-74
2023/10/15 04:23:56;;;;;;;5.68;1.73;;;;;;;7.31;100.00;99063.81;5010824;28;20090;-75
2023/10/15 04:25:54;;;;;;;4.95;1.70;;;;;;;7.38;100.00;99060.25;4992024;28;20035;-75
2023/10/15 04:28:19;;;;;;;8.32;1.95;;;;;;;7.31;100.00;99053.94;4996609;28;20033;-75
2023/10/15 04:30:46;;;;;;;4.93;1.67;;;;;;;7.41;100.00;99065.31;5006154;28;20049;-76
2023/10/15 04:33:13;;;;;;;4.57;1.70;;;;;;;7.41;100.00;99051.00;5014730;28;20037;-76
2023/10/15 04:35:42;;;;;;;5.82;2.25;;;;;;;7.51;100.00;99061.53;4994298;28;20033;-75
2023/10/15 04:38:07;;;;;;;;;;;;;;;7.45;100.00;99063.09;5003097;28;20264;-75
2023/10/15 04:40:59;;;;;;;3.53;1.70;;;;;;;7.50;100.00;99070.66;4997051;28;19917;-76
2023/10/15 04:43:25;;;;;;;7.53;1.70;;;;;;;7.53;100.00;99067.59;5013855;28;20513;-76
2023/10/15 04:45:51;;;;;;;4.82;1.52;;;;;;;7.47;100.00;99075.38;4979787;28;20027;-75
2023/10/15 04:48:18;;;;;;;4.63;1.73;;;;;;;7.33;100.00;99059.13;5006542;28;20299;-76
2023/10/15 04:50:43;;;;;;;3.95;1.83;;;;;;;7.26;100.00;99045.53;5009824;28;20022;-78
2023/10/15 04:55:47;;;;;;;6.30;1.90;;;;;;;7.22;100.00;99061.19;4995609;28;20026;-75
2023/10/15 04:58:13;;;;;;;5.07;2.38;;;;;;;7.21;100.00;99056.00;4993669;28;20041;-75
2023/10/15 05:00:41;;;;;;;6.57;1.75;;;;;;;7.30;100.00;99076.44;5012680;28;21415;-78
2023/10/15 05:03:09;;;;;;;5.95;2.00;;;;;;;7.18;100.00;99051.81;4994457;28;20029;-77
2023/10/15 05:05:34;;;;;;;7.68;2.47;;;;;;;7.26;100.00;99056.31;4975701;28;20085;-77
2023/10/15 05:08:02;;;;;;;4.93;1.98;;;;;;;7.40;100.00;99057.41;4971700;28;20046;-77
2023/10/15 05:10:33;;;;;;;9.37;1.73;;;;;;;7.44;100.00;99077.56;4978621;28;20023;-80
2023/10/15 05:12:59;;;;;;;4.55;1.60;;;;;;;7.46;100.00;99075.53;4986462;28;20022;-77
2023/10/15 05:15:25;;;;;;;5.20;1.58;;;;;;;7.38;100.00;99065.63;4986805;28;20212;-76
2023/10/15 05:17:50;;;;;;;3.17;1.63;;;;;;;7.49;100.00;99077.84;4981526;28;20160;-76
2023/10/15 05:20:16;;;;;;;7.90;1.83;;;;;;;7.61;100.00;99079.16;4996240;28;20065;-76
2023/10/15 05:22:41;;;;;;;7.88;1.63;;;;;;;7.61;100.00;99071.06;4996392;28;20026;-76
2023/10/15 05:25:17;;;;;;;4.07;1.58;;;;;;;7.65;100.00;99074.22;4999168;28;20030;-76
2023/10/15 05:27:42;;;;;;;5.63;1.80;;;;;;;7.61;100.00;99070.22;4991999;28;20033;-78
2023/10/15 05:30:11;;;;;;;4.03;1.80;;;;;;;7.65;100.00;99088.56;4983151;28;20287;-76
2023/10/15 05:32:36;;;;;;;8.15;1.92;;;;;;;7.64;100.00;99089.56;4987221;28;20080;-78
2023/10/15 05:35:02;;;;;;;4.25;1.75;;;;;;;7.63;100.00;99098.66;5003210;28;20335;-78
2023/10/15 05:37:28;;;;;;;4.32;1.95;;;;;;;7.60;100.00;99088.25;4989343;28;20320;-79
2023/10/15 05:39:53;;;;;;;6.97;2.35;;;;;;;7.47;100.00;99090.69;5006786;28;20026;-77
2023/10/15 05:42:18;;;;;;;5.32;1.67;;;;;;;7.42;100.00;99069.66;4986619;28;20030;-77
2023/10/15 05:44:44;;;;;;;6.20;2.15;;;;;;;7.38;100.00;99078.25;4988112;28;20022;-78
2023/10/15 05:47:09;;;;;;;5.13;1.73;;;;;;;7.28;100.00;99074.94;4995542;28;20318;-77
2023/10/15 05:49:36;;;;;;;8.10;2.53;;;;;;;7.19;100.00;99083.06;5009162;28;20093;-78
2023/10/15 05:52:02;;;;;;;4.82;1.95;;;;;;;7.20;100.00;99097.34;4990155;28;20048;-78
2023/10/15 05:54:28;;;;;;;4.53;2.30;;;;;;;7.08;100.00;99098.75;4994324;28;20046;-78
2023/10/15 05:56:53;;;;;;;9.68;2.20;;;;;;;7.15;100.00;99107.78;4984540;28;20030;-78
2023/10/15 05:59:18;;;;;;;5.63;2.13;;;;;;;7.06;100.00;99095.41;5008181;28;20037;-76
2023/10/15 06:01:44;;;;;;;8.65;1.92;;;;;;;7.09;100.00;99095.06;5012162;28;20227;-75
2023/10/15 06:04:09;;;;;;;7.70;3.35;;;;;;;7.02;100.00;99087.69;4993452;23;20042;-78
2023/10/15 06:06:36;;;;;;;15.32;3.05;;;;;;;7.19;100.00;99112.66;4977775;28;20076;-77
2023/10/15 06:09:05;;;;;;;5.40;2.03;;;;;;;7.07;100.00;99079.06;4970322;28;20022;-77
2023/10/15 06:11:30;;;;;;;6.07;2.33;;;;;;;7.36;100.00;99124.22;4972886;28;20041;-77
2023/10/15 06:13:56;;;;;;;5.75;2.13;;;;;;;7.37;100.00;99104.34;4966664;28;20046;-78
2023/10/15 06:16:21;;;;;;;14.23;2.55;;;;;;;7.43;100.00;99121.66;4969188;28;20023;-81
2023/10/15 06:18:47;;;;;;;7.10;2.70;;;;;;;7.31;100.00;99088.91;4993395;28;20029;-77
2023/10/15 06:21:12;;;;;;;7.78;2.20;;;;;;;7.39;100.00;99102.34;4987160;28;20037;-78
2023/10/15 06:23:37;;;;;;;7.53;2.88;;;;;;;7.46;100.00;99121.28;4997782;28;20023;-82
2023/10/15 06:26:03;;;;;;;5.00;2.08;;;;;;;7.54;100.00;99117.72;4987402;28;20026;-76
2023/10/15 06:28:28;;;;;;;11.40;3.58;;;;;;;7.74;100.00;99136.97;5010292;28;20033;-77
2023/10/15 06:30:54;;;;;;;4.57;2.42;;;;;;;7.98;100.00;99134.13;4983210;28;20022;-77
2023/10/15 06:33:19;;;;;;;11.10;2.55;;;;;;;8.13;100.00;99107.25;4984176;28;20331;-77
2023/10/15 06:35:45;;;;;;;8.23;2.08;;;;;;;8.42;100.00;99136.19;5012370;28;20342;-81
2023/10/15 06:38:10;;;;;;;5.32;2.47;;;;;;;8.47;100.00;99125.72;4985473;28;20103;-80
2023/10/15 06:40:38;;;;;;;9.05;2.83;;;;;;;8.45;100.00;99108.88;5004054;28;20101;-78
2023/10/15 06:43:04;;;;;;;5.13;2.50;;;;;;;8.57;100.00;99111.97;4975967;28;20046;-77
2023/10/15 06:45:31;;;;;;;5.18;2.33;;;;;;;8.69;100.00;99123.97;4978689;28;20037;-79
2023/10/15 06:47:57;;;;;;;4.20;2.15;;;;;;;8.69;100.00;99093.47;4987674;28;20014;-79
2023/10/15 06:50:23;;;;;;;6.50;1.70;;;;;;;8.92;100.00;99137.41;4987518;28;20028;-85
2023/10/15 06:52:48;;;;;;;6.72;2.30;;;;;;;9.02;100.00;99123.66;4983472;28;20029;-79
2023/10/15 06:55:14;;;;;;;4.07;1.60;;;;;;;9.45;100.00;99137.31;4995906;28;20018;-80
2023/10/15 06:57:40;;;;;;;8.85;2.10;;;;;;;9.60;100.00;99126.50;4986008;28;20141;-82
2023/10/15 07:00:10;;;;;;;3.88;1.77;;;;;;;9.76;100.00;99107.34;4985788;28;20339;-81
2023/10/15 07:02:36;;;;;;;5.80;1.40;;;;;;;10.67;100.00;99087.88;4987425;28;20093;-81
2023/10/15 07:05:03;;;;;;;2.92;1.50;;;;;;;11.21;100.00;99116.94;4978097;28;20037;-79
2023/10/15 07:07:30;;;;;;;3.05;1.42;;;;;;;10.95;100.00;99113.03;4986158;28;20093;-79
2023/10/15 07:09:56;;;;;;;3.90;1.23;;;;;;;11.11;100.00;99095.66;4984298;28;20085;-78
2023/10/15 07:12:22;;;;;;;7.50;1.40;;;;;;;11.04;100.00;99113.72;4985426;28;20041;-76
2023/10/15 07:14:47;;;;;;;4.35;1.45;;;;;;;11.03;100.00;99112.06;5003354;28;20029;-77
2023/10/15 07:17:13;;;;;;;2.70;1.23;;;;;;;10.60;100.00;99095.91;5003140;28;20089;-77
2023/10/15 07:19:38;;;;;;;3.58;1.20;;;;;;;10.57;100.00;99130.66;4996539;28;20033;-77
2023/10/15 07:22:04;;;;;;;8.82;1.30;;;;;;;10.27;100.00;99142.47;4985426;28;20022;-75
2023/10/15 07:24:31;;;;;;;6.03;1.30;;;;;;;9.85;100.00;99138.66;4976134;28;20037;-77
2023/10/15 07:26:56;;;;;;;6.65;1.60;;;;;;;9.74;100.00;99141.00;4983571;28;20026;-78
2023/10/15 07:29:23;;;;;;;2.60;1.40;;;;;;;9.60;100.00;99140.00;4993288;28;20253;-79
2023/10/15 07:31:49;;;;;;;5.28;1.92;;;;;;;9.55;100.00;99139.72;4967691;28;20098;-78
2023/10/15 07:34:14;;;;;;;7.25;1.75;;;;;;;9.58;100.00;99147.47;4975119;28;20029;-72
2023/10/15 07:36:39;;;;;;;7.53;1.60;;;;;;;9.63;100.00;99147.72;4982478;28;20023;-72
2023/10/15 07:39:06;;;;;;;7.60;1.60;;;;;;;9.91;100.00;99128.94;4990992;28;20026;-71
2023/10/15 07:41:33;;;;;;;5.45;1.88;;;;;;;11.29;100.00;99132.19;4993833;28;20022;-71
2023/10/15 07:44:01;;;;;;;5.70;1.30;;;;;;;14.20;100.00;99097.84;5004765;28;20017;-72
2023/10/15 07:46:26;;;;;;;4.13;1.27;;;;;;;17.08;100.00;99105.03;4998844;28;20025;-72
2023/10/15 07:48:52;;;;;;;4.25;1.25;;;;;;;18.00;100.00;99089.75;5004668;28;20049;-80
2023/10/15 07:51:18;;;;;;;5.00;1.20;;;;;;;19.69;100.00;99094.13;4982004;28;20105;-74
2023/10/15 07:53:43;;;;;;;5.40;1.48;;;;;;;19.10;100.00;99104.84;5000881;28;20077;-74
2023/10/15 07:56:08;;;;;;;1.73;1.00;;;;;;;21.33;100.00;99103.88;5004356;28;20022;-73
2023/10/15 07:58:35;;;;;;;4.05;1.00;;;;;;;23.69;79.28;99082.91;5003189;28;20323;-76
2023/10/15 08:01:00;;;;;;;5.15;1.13;;;;;;;24.66;67.37;99096.19;5012086;28;20266;-76
2023/10/15 08:03:29;;;;;;;3.53;1.20;;;;;;;25.62;61.37;99083.63;5006448;28;20022;-76
2023/10/15 08:05:54;;;;;;;2.53;0.82;;;;;;;26.73;58.11;99099.88;4987445;28;20030;-74
2023/10/15 08:08:19;;;;;;;2.60;0.98;;;;;;;26.36;57.86;99095.97;5007645;28;20301;-76
2023/10/15 08:10:44;;;;;;;3.67;0.80;;;;;;;26.78;52.65;99083.13;4988617;28;20114;-74
2023/10/15 08:13:10;;;;;;;5.38;1.10;;;;;;;27.46;50.94;99087.19;4988004;28;20018;-74
2023/10/15 08:15:36;;;;;;;3.05;0.98;;;;;;;27.82;49.66;99092.03;5003341;28;20041;-76
2023/10/15 08:18:02;;;;;;;3.97;0.85;;;;;;;28.03;49.32;99103.53;4987427;28;20073;-73
2023/10/15 08:20:33;;;;;;;4.45;1.50;;;;;;;27.47;47.93;99099.13;5000461;28;20042;-78
2023/10/15 08:23:00;;;;;;;4.50;1.35;;;;;;;25.77;47.95;99100.09;5000349;28;20014;-78
2023/10/15 08:25:25;;;;;;;4.85;1.23;;;;;;;24.68;50.81;99116.13;4985173;28;20022;-76
2023/10/15 08:27:51;;;;;;;4.45;1.15;;;;;;;23.07;56.15;99089.72;4987011;28;20102;-75
2023/10/15 08:30:17;;;;;;;5.00;0.90;;;;;;;22.80;57.23;99103.78;5006453;28;20046;-75
2023/10/15 08:32:44;;;;;;;7.68;1.38;;;;;;;21.63;62.01;99114.22;4994254;28;20025;-76
2023/10/15 08:35:15;;;;;;;8.70;1.45;;;;;;;20.46;64.31;99121.59;4987219;28;20023;-75
2023/10/15 08:37:44;;;;;;;7.55;1.52;;;;;;;21.11;65.94;99116.94;5016595;28;20342;-75
2023/10/15 08:40:15;;;;;;;2.65;0.70;;;;;;;20.84;66.04;99109.59;4993628;28;20062;-76
2023/10/15 08:42:59;;;;;;;5.70;0.90;;;;;;;21.45;62.80;99114.69;4986651;28;20031;-76
2023/10/15 08:45:25;;;;;;;4.30;0.80;;;;;;;22.88;58.07;99089.44;4985107;28;20045;-75
2023/10/15 08:47:53;;;;;;;7.82;1.10;;;;;;;24.25;54.29;99110.28;5004290;28;20030;-71
2023/10/15 08:50:22;;;;;;;4.50;1.23;;;;;;;21.44;56.51;99113.06;5008270;28;20030;-79
2023/10/15 08:52:49;;;;;;;4.43;0.90;;;;;;;18.91;66.53;99120.69;4990634;28;20021;-73
2023/10/15 08:55:16;;;;;;;9.07;1.33;;;;;;;17.94;80.80;99135.38;4993301;28;20101;-73
2023/10/15 08:57:42;;;;;;;5.85;1.23;;;;;;;17.04;100.00;99117.53;4997345;28;20041;-75
2023/10/15 09:00:25;;;;;;;8.70;1.15;;;;;;;15.93;100.00;99130.81;4985464;28;20022;-75
2023/10/15 09:02:53;;;;;;;5.15;1.10;;;;;;;15.96;100.00;99124.88;4993397;28;20311;-74
2023/10/15 09:05:18;;;;;;;3.88;0.98;;;;;;;20.23;92.79;99109.84;4997712;28;20022;-75
2023/10/15 09:07:47;;;;;;;4.13;0.90;;;;;;;22.08;72.77;99110.00;5006410;28;20042;-75
2023/10/15 09:10:15;;;;;;;6.63;1.07;;;;;;;24.26;62.22;99098.13;5006134;28;20022;-75
2023/10/15 09:12:40;;;;;;;2.70;0.98;;;;;;;27.87;53.37;99100.25;4998764;28;20049;-75
2023/10/15 09:15:15;;;;;;;3.72;1.13;;;;;;;30.14;45.38;99102.59;5008101;28;20034;-76
2023/10/15 09:17:41;;;;;;;4.20;0.85;;;;;;;31.42;41.90;99115.22;5015138;28;20322;-75
2023/10/15 09:20:08;;;;;;;3.90;1.05;;;;;;;28.49;42.89;99116.47;5011703;28;20045;-74
2023/10/15 09:22:34;;;;;;;5.15;0.90;;;;;;;25.53;45.58;99125.03;4997330;28;20018;-75
2023/10/15 09:24:59;;;;;;;4.45;0.73;;;;;;;21.48;52.49;99116.91;4992701;28;20048;-74
2023/10/15 09:27:25;;;;;;;5.60;0.90;;;;;;;19.00;61.31;99127.44;4985678;28;20027;-74
2023/10/15 09:30:18;;;;;;;4.15;0.90;;;;;;;17.01;79.17;99143.47;4995906;28;20215;-74
2023/10/15 09:32:43;;;;;;;3.45;0.80;;;;;;;15.72;100.00;99145.75;4970694;28;20045;-74
2023/10/15 09:35:09;;;;;;;2.97;0.57;;;;;;;14.92;100.00;99119.31;5012744;28;20085;-74
2023/10/15 09:37:35;;;;;;;5.10;0.65;;;;;;;14.18;100.00;99120.91;5013145;28;20350;-73
2023/10/15 09:40:00;;;;;;;5.50;0.65;;;;;;;13.90;100.00;99152.00;4988246;28;20280;-74
2023/10/15 09:42:33;;;;;;;3.70;0.73;;;;;;;16.93;100.00;99157.47;4989607;28;20026;-74
2023/10/15 09:45:01;;;;;;;6.55;0.85;;;;;;;19.84;83.41;99131.09;5009602;28;20022;-74
2023/10/15 09:47:27;;;;;;;2.67;0.60;;;;;;;18.98;77.65;99126.84;4996265;28;20082;-74
2023/10/15 09:49:54;;;;;;;3.50;0.70;;;;;;;17.00;85.22;99151.88;4992766;28;20037;-75
2023/10/15 09:52:20;;;;;;;2.13;0.50;;;;;;;15.61;100.00;99147.28;4994876;28;20089;-74
2023/10/15 09:54:48;;;;;;;2.38;0.80;;;;;;;17.87;91.29;99131.97;5004305;28;20318;-74
2023/10/15 09:57:16;;;;;;;3.30;0.63;;;;;;;20.91;72.14;99134.13;4982001;28;20026;-74
2023/10/15 09:59:41;;;;;;;2.83;0.60;;;;;;;22.90;57.25;99115.66;5017169;28;20018;-75
2023/10/15 10:02:12;;;;;;;3.00;0.80;;;;;;;23.62;56.54;99115.53;5006793;28;20032;-75
2023/10/15 10:04:56;;;;;;;5.88;0.60;;;;;;;25.02;50.40;99126.34;4997345;28;20027;-75
2023/10/15 10:07:47;;;;;;;1.60;0.40;;;;;;;27.24;46.24;99115.66;5012558;28;20326;-74
2023/10/15 10:10:51;;;;;;;4.50;0.85;;;;;;;27.27;43.30;99103.97;4998668;28;20033;-75
2023/10/15 10:13:33;;;;;;;1.55;0.45;;;;;;;26.00;44.64;99117.84;5003357;28;20234;-75
2023/10/15 10:15:59;;;;;;;3.92;0.73;;;;;;;25.67;45.25;99112.09;5001618;28;20045;-75
2023/10/15 10:18:27;;;;;;;3.97;0.90;;;;;;;26.29;44.88;99119.66;4987781;28;20121;-75
2023/10/15 10:20:55;;;;;;;5.68;0.85;;;;;;;26.27;42.78;99122.72;5000537;28;20025;-75
2023/10/15 10:23:22;;;;;;;2.42;0.70;;;;;;;24.32;46.49;99120.22;4993839;28;20267;-74
2023/10/15 10:25:51;;;;;;;2.35;0.82;;;;;;;21.06;50.40;99123.22;5001599;28;20052;-75
2023/10/15 10:28:21;;;;;;;5.30;1.00;;;;;;;24.30;48.11;99127.97;4990113;28;20302;-75
2023/10/15 10:30:52;;;;;;;2.83;0.93;;;;;;;28.52;45.08;99113.03;4999892;28;20030;-75
2023/10/15 10:33:43;;;;;;;4.00;0.80;;;;;;;29.88;40.60;99108.13;4982544;28;20033;-75
2023/10/15 10:36:14;;;;;;;5.72;1.13;;;;;;;28.49;42.22;99112.84;4996734;28;20033;-77
2023/10/15 10:38:43;;;;;;;2.85;0.65;;;;;;;28.26;40.80;99098.03;4987646;28;20051;-74
2023/10/15 10:41:13;;;;;;;3.35;0.60;;;;;;;25.47;42.17;99101.28;4986394;28;20097;-75
2023/10/15 10:43:42;;;;;;;1.30;0.50;;;;;;;26.40;43.42;99098.97;4988527;28;20027;-75
2023/10/15 10:46:19;;;;;;;3.35;0.70;;;;;;;28.07;40.76;99095.41;5012926;28;20026;-75
2023/10/15 10:48:44;;;;;;;3.75;0.80;;;;;;;25.64;43.35;99098.03;5013157;28;20327;-75
2023/10/15 10:51:13;;;;;;;1.80;0.70;;;;;;;23.80;46.62;99106.66;4992172;28;20029;-73
2023/10/15 10:53:57;;;;;;;5.00;0.90;;;;;;;21.55;49.01;99106.50;4987685;28;20034;-74
2023/10/15 10:56:23;;;;;;;3.40;0.70;;;;;;;19.23;50.64;99114.59;4990117;28;20030;-74
2023/10/15 10:58:54;;;;;;;2.00;0.60;;;;;;;16.89;54.06;99123.47;5005745;28;20340;-74
2023/10/15 11:01:21;;;;;;;3.53;0.80;;;;;;;16.21;54.80;99109.16;4993622;28;20040;-77
2023/10/15 11:03:47;;;;;;;1.10;0.43;;;;;;;15.91;57.25;99117.38;5003247;28;20018;-77
2023/10/15 11:06:13;;;;;;;3.95;1.00;;;;;;;15.01;60.93;99100.75;5003603;28;20022;-76
2023/10/15 11:08:39;;;;;;;1.35;0.40;;;;;;;14.76;60.16;99108.97;5003448;28;20394;-74
2023/10/15 11:11:04;;;;;;;2.22;0.40;;;;;;;14.14;63.91;99106.88;4984218;28;20049;-74
2023/10/15 11:13:29;;;;;;;4.85;0.60;;;;;;;14.14;69.33;99127.81;5009381;28;20033;-74
2023/10/15 11:15:56;;;;;;;2.30;0.50;;;;;;;13.43;73.28;99142.34;5014929;28;20028;-74
2023/10/15 11:18:25;;;;;;;1.77;0.47;;;;;;;13.03;84.44;99134.28;4996447;28;20033;-74
2023/10/15 11:20:53;;;;;;;3.40;0.60;;;;;;;12.59;93.09;99135.75;5015585;28;20110;-75
2023/10/15 11:23:23;;;;;;;1.70;0.40;;;;;;;12.67;100.00;99141.78;4983703;28;20022;-75
2023/10/15 11:25:51;;;;;;;1.88;0.40;;;;;;;12.18;100.00;99144.88;4987682;28;20025;-76
2023/10/15 11:28:18;;;;;;;3.03;0.68;;;;;;;12.67;100.00;99133.66;4985130;28;20231;-75
2023/10/15 11:30:44;;;;;;;2.30;0.32;;;;;;;12.88;100.00;99124.44;4998478;28;20033;-75
2023/10/15 11:33:09;;;;;;;4.78;1.40;;;;;;;14.20;100.00;99126.94;4984595;28;20227;-76
2023/10/15 11:35:36;;;;;;;3.08;0.70;;;;;;;17.52;79.23;99114.50;4977144;28;20033;-75
2023/10/15 11:38:08;;;;;;;6.63;1.25;;;;;;;21.34;63.37;99096.44;4975644;28;20034;-75
2023/10/15 11:40:40;;;;;;;3.33;0.77;;;;;;;23.93;52.54;99105.22;4982307;28;20034;-75
2023/10/15 11:43:25;;;;;;;2.83;0.60;;;;;;;25.62;48.68;99097.50;4985262;28;20029;-75
2023/10/15 11:45:56;;;;;;;3.10;0.80;;;;;;;26.11;45.98;99082.47;4984631;28;20026;-75
2023/10/15 11:48:21;;;;;;;1.67;0.60;;;;;;;27.61;43.11;99088.00;4984959;28;20134;-75